createdAt,value
2023-05-08T00:02:01.028Z,119.30
2023-05-08T00:04:28.462Z,119.27
2023-05-08T00:06:55.937Z,119.50
2023-05-08T00:09:23.372Z,119.60
2023-05-08T00:11:50.903Z,119.30
2023-05-08T00:14:18.237Z,119.77
2023-05-08T00:16:45.299Z,119.63
2023-05-08T00:19:12.820Z,120.30
2023-05-08T00:21:39.973Z,119.90
2023-05-08T00:24:07.316Z,119.90
2023-05-08T00:26:34.382Z,119.37
2023-05-08T00:29:01.403Z,119.30
2023-05-08T00:31:28.508Z,120.30
2023-05-08T00:33:55.801Z,119.13
2023-05-08T00:36:23.317Z,120.27
2023-05-08T00:38:50.749Z,119.57
2023-05-08T00:41:18.231Z,119.40
2023-05-08T00:43:45.712Z,117.77
2023-05-08T00:46:14.017Z,120.07
2023-05-08T00:48:44.002Z,120.60
2023-05-08T00:51:12.167Z,119.40
2023-05-08T00:53:45.150Z,119.63
2023-05-08T00:56:16.808Z,120.57
2023-05-08T00:58:45.552Z,119.50
2023-05-08T01:01:12.718Z,119.60
2023-05-08T01:03:41.375Z,119.53
2023-05-08T01:06:08.762Z,119.97
2023-05-08T01:08:36.028Z,119.97
2023-05-08T01:11:38.054Z,119.30
2023-05-08T01:14:21.132Z,119.97
2023-05-08T01:17:12.190Z,119.50
2023-05-08T01:20:04.208Z,119.73
2023-05-08T01:23:59.436Z,119.60
2023-05-08T01:26:31.796Z,118.27
2023-05-08T01:29:48.948Z,119.90
2023-05-08T01:32:39.288Z,119.70
2023-05-08T01:35:36.097Z,119.60
2023-05-08T01:38:43.309Z,119.23
2023-05-08T01:41:25.360Z,119.27
2023-05-08T01:44:17.372Z,119.90
2023-05-08T01:46:50.897Z,119.33
2023-05-08T01:49:34.600Z,120.07
2023-05-08T01:52:13.095Z,119.60
2023-05-08T01:54:58.988Z,119.20
2023-05-08T01:57:30.061Z,119.30
2023-05-08T02:00:03.083Z,120.00
2023-05-08T02:02:38.111Z,119.30
2023-05-08T02:05:08.765Z,119.70
2023-05-08T02:07:40.494Z,119.37
2023-05-08T02:10:10.092Z,120.07
2023-05-08T02:12:38.907Z,118.97
2023-05-08T02:15:09.197Z,120.23
2023-05-08T02:17:40.681Z,119.50
2023-05-08T02:20:14.639Z,120.07
2023-05-08T02:22:50.520Z,119.20
2023-05-08T02:25:19.633Z,118.37
2023-05-08T02:27:50.960Z,119.10
2023-05-08T02:30:19.203Z,120.27
2023-05-08T02:32:49.753Z,119.10
2023-05-08T02:35:19.699Z,120.20
2023-05-08T02:37:56.194Z,119.97
2023-05-08T02:40:28.381Z,119.57
2023-05-08T02:42:56.334Z,120.27
2023-05-08T02:45:38.633Z,119.77
2023-05-08T02:48:31.309Z,120.47
2023-05-08T02:51:21.485Z,120.43
2023-05-08T02:54:21.667Z,119.37
2023-05-08T02:57:09.007Z,120.20
2023-05-08T02:59:51.754Z,120.27
2023-05-08T03:02:33.782Z,119.60
2023-05-08T03:05:15.060Z,118.97
2023-05-08T03:07:45.409Z,119.90
2023-05-08T03:10:16.465Z,119.70
2023-05-08T03:12:49.914Z,120.00
2023-05-08T03:15:51.687Z,120.20
2023-05-08T03:18:24.241Z,119.53
2023-05-08T03:20:56.555Z,117.97
2023-05-08T03:23:28.172Z,120.00
2023-05-08T03:25:58.858Z,119.87
2023-05-08T03:28:27.663Z,120.47
2023-05-08T03:30:59.444Z,119.67
2023-05-08T03:33:29.189Z,120.67
2023-05-08T03:35:59.566Z,119.67
2023-05-08T03:38:27.327Z,120.53
2023-05-08T03:40:54.848Z,119.97
2023-05-08T03:43:23.260Z,120.10
2023-05-08T03:45:51.664Z,120.23
2023-05-08T03:48:20.115Z,120.77
2023-05-08T03:50:47.818Z,120.40
2023-05-08T03:53:15.567Z,120.40
2023-05-08T03:55:43.315Z,120.27
2023-05-08T03:58:31.975Z,119.97
2023-05-08T04:01:24.307Z,120.20
2023-05-08T04:04:30.471Z,120.07
2023-05-08T04:07:33.460Z,118.83
2023-05-08T04:10:13.906Z,120.60
2023-05-08T04:13:07.564Z,120.80
2023-05-08T04:15:49.079Z,120.27
2023-05-08T04:18:28.861Z,121.00
2023-05-08T04:21:00.562Z,118.17
2023-05-08T04:23:30.004Z,119.23
2023-05-08T04:26:00.721Z,120.30
2023-05-08T04:28:29.599Z,119.27
2023-05-08T04:30:58.635Z,119.20
2023-05-08T04:33:26.706Z,120.17
2023-05-08T04:35:54.581Z,120.30
2023-05-08T04:38:22.789Z,119.70
2023-05-08T04:40:50.750Z,120.30
2023-05-08T04:43:18.349Z,119.40
2023-05-08T04:45:45.915Z,118.97
2023-05-08T04:48:14.018Z,120.50
2023-05-08T04:50:41.640Z,118.90
2023-05-08T04:53:09.095Z,120.60
2023-05-08T04:55:37.014Z,120.00
2023-05-08T04:58:04.068Z,119.77
2023-05-08T05:00:31.219Z,118.53
2023-05-08T05:02:59.313Z,119.47
2023-05-08T05:05:27.110Z,119.50
2023-05-08T05:07:54.562Z,119.17
2023-05-08T05:10:23.412Z,119.97
2023-05-08T05:12:51.259Z,119.30
2023-05-08T05:15:19.553Z,119.90
2023-05-08T05:17:47.402Z,119.40
2023-05-08T05:20:15.160Z,120.27
2023-05-08T05:22:43.139Z,119.47
2023-05-08T05:25:10.738Z,118.27
2023-05-08T05:27:38.759Z,120.17
2023-05-08T05:30:08.471Z,120.17
2023-05-08T05:32:36.216Z,119.30
2023-05-08T05:35:03.609Z,119.53
2023-05-08T05:37:30.864Z,118.80
2023-05-08T05:39:58.395Z,118.17
2023-05-08T05:42:26.103Z,119.57
2023-05-08T05:44:56.765Z,118.90
2023-05-08T05:47:24.512Z,118.27
2023-05-08T05:49:52.312Z,116.77
2023-05-08T05:52:19.902Z,118.70
2023-05-08T05:54:47.118Z,118.83
2023-05-08T05:57:14.655Z,118.77
2023-05-08T05:59:43.305Z,118.43
2023-05-08T06:02:14.330Z,118.37
2023-05-08T06:04:41.366Z,118.40
2023-05-08T06:07:12.075Z,118.60
2023-05-08T06:09:40.244Z,118.23
2023-05-08T06:12:10.293Z,118.57
2023-05-08T06:14:37.424Z,118.20
2023-05-08T06:17:05.881Z,118.60
2023-05-08T06:19:33.403Z,118.30
2023-05-08T06:22:01.003Z,118.37
2023-05-08T06:24:28.538Z,117.80
2023-05-08T06:26:55.549Z,118.00
2023-05-08T06:29:23.024Z,118.00
2023-05-08T06:31:50.118Z,118.17
2023-05-08T06:34:17.660Z,117.80
2023-05-08T06:36:44.601Z,117.70
2023-05-08T06:39:12.103Z,117.70
2023-05-08T06:41:39.091Z,117.37
2023-05-08T06:44:06.080Z,117.80
2023-05-08T06:46:33.612Z,117.80
2023-05-08T06:49:00.651Z,118.17
2023-05-08T06:51:28.100Z,117.77
2023-05-08T06:53:55.179Z,117.90
2023-05-08T06:56:22.753Z,117.83
2023-05-08T06:59:00.480Z,117.30
2023-05-08T07:01:32.093Z,117.10
2023-05-08T07:03:59.345Z,117.03
2023-05-08T07:06:27.583Z,117.47
2023-05-08T07:08:54.967Z,117.37
2023-05-08T07:11:22.153Z,116.80
2023-05-08T07:13:50.827Z,117.10
2023-05-08T07:16:18.359Z,117.07
2023-05-08T07:18:45.476Z,117.27
2023-05-08T07:21:13.080Z,117.37
2023-05-08T07:23:40.127Z,116.80
2023-05-08T07:26:08.120Z,116.40
2023-05-08T07:28:35.244Z,116.80
2023-05-08T07:31:08.405Z,117.00
2023-05-08T07:33:35.484Z,116.70
2023-05-08T07:36:02.877Z,116.73
2023-05-08T07:38:30.080Z,116.80
2023-05-08T07:40:57.824Z,117.10
2023-05-08T07:43:25.059Z,116.90
2023-05-08T07:45:52.209Z,117.00
2023-05-08T07:48:19.813Z,117.37
2023-05-08T07:50:46.920Z,117.13
2023-05-08T07:53:13.984Z,116.73
2023-05-08T07:55:41.033Z,116.60
2023-05-08T07:58:09.080Z,116.90
2023-05-08T08:03:47.106Z,116.20
2023-05-08T08:06:14.831Z,116.10
2023-05-08T08:08:42.335Z,108.47
2023-05-08T08:11:09.854Z,113.90
2023-05-08T08:13:36.897Z,115.87
2023-05-08T08:16:04.363Z,115.60
2023-05-08T08:18:38.350Z,116.00
2023-05-08T08:21:08.616Z,114.90
2023-05-08T08:23:35.895Z,115.17
2023-05-08T08:26:03.318Z,115.37
2023-05-08T08:28:30.397Z,114.15
2023-05-08T08:30:57.436Z,116.23
2023-05-08T08:33:25.072Z,116.27
2023-05-08T08:35:52.004Z,116.30
2023-05-08T08:38:19.498Z,113.63
2023-05-08T08:40:46.631Z,116.17
2023-05-08T08:43:14.369Z,114.67
2023-05-08T08:45:41.346Z,116.03
2023-05-08T08:48:12.530Z,116.27
2023-05-08T08:50:47.462Z,115.97
2023-05-08T08:53:27.560Z,115.38
2023-05-08T08:55:58.623Z,115.70
2023-05-08T08:58:49.699Z,114.63
2023-05-08T09:01:20.705Z,114.47
2023-05-08T09:03:50.095Z,115.10
2023-05-08T09:06:18.442Z,113.20
2023-05-08T09:08:46.298Z,115.13
2023-05-08T09:11:13.500Z,114.70
2023-05-08T09:13:40.844Z,113.90
2023-05-08T09:16:08.507Z,115.20
2023-05-08T09:18:36.253Z,115.53
2023-05-08T09:21:06.686Z,113.80
2023-05-08T09:23:36.681Z,113.73
2023-05-08T09:26:03.908Z,114.03
2023-05-08T09:28:30.914Z,113.87
2023-05-08T09:31:00.051Z,112.97
2023-05-08T09:33:29.930Z,113.97
2023-05-08T09:35:58.085Z,112.77
2023-05-08T09:38:43.485Z,112.60
2023-05-08T09:41:16.256Z,113.20
2023-05-08T09:43:45.906Z,113.20
2023-05-08T09:46:25.717Z,113.63
2023-05-08T09:48:59.915Z,112.57
2023-05-08T09:51:32.190Z,113.67
2023-05-08T09:54:00.470Z,113.07
2023-05-08T09:56:36.356Z,112.70
2023-05-08T09:59:06.565Z,113.70
2023-05-08T10:01:37.373Z,114.90
2023-05-08T10:04:06.074Z,113.07
2023-05-08T10:06:33.822Z,114.10
2023-05-08T10:09:15.108Z,114.50
2023-05-08T10:11:55.264Z,113.47
2023-05-08T10:14:24.315Z,114.50
2023-05-08T10:16:54.582Z,115.37
2023-05-08T10:19:28.280Z,115.17
2023-05-08T10:21:58.101Z,115.32
2023-05-08T10:24:33.634Z,114.83
2023-05-08T10:27:19.913Z,114.90
2023-05-08T10:29:55.868Z,114.50
2023-05-08T10:32:24.932Z,114.43
2023-05-08T10:35:00.627Z,114.60
2023-05-08T10:37:31.155Z,114.65
2023-05-08T10:39:59.769Z,115.07
2023-05-08T10:42:28.772Z,113.57
2023-05-08T10:44:56.491Z,114.47
2023-05-08T10:47:58.039Z,113.37
2023-05-08T10:51:06.282Z,114.18
2023-05-08T10:53:59.101Z,115.07
2023-05-08T10:56:28.633Z,113.77
2023-05-08T10:58:59.670Z,113.60
2023-05-08T11:01:27.434Z,113.27
2023-05-08T11:03:57.853Z,115.10
2023-05-08T11:06:45.567Z,114.77
2023-05-08T11:09:29.249Z,113.70
2023-05-08T11:12:21.221Z,115.27
2023-05-08T11:15:09.617Z,114.53
2023-05-08T11:17:36.754Z,114.10
2023-05-08T11:20:06.829Z,114.57
2023-05-08T11:22:36.841Z,112.97
2023-05-08T11:25:10.895Z,114.77
2023-05-08T11:27:50.193Z,113.90
2023-05-08T11:30:36.336Z,114.37
2023-05-08T11:33:06.759Z,115.57
2023-05-08T11:35:52.763Z,113.93
2023-05-08T11:38:37.959Z,114.80
2023-05-08T11:41:25.300Z,113.87
2023-05-08T11:44:01.677Z,114.43
2023-05-08T11:46:53.940Z,114.97
2023-05-08T11:49:28.987Z,114.57
2023-05-08T11:51:59.730Z,115.60
2023-05-08T11:54:31.124Z,113.57
2023-05-08T11:56:59.452Z,113.20
2023-05-08T11:59:26.981Z,114.57
2023-05-08T12:02:06.784Z,113.28
2023-05-08T12:04:47.271Z,112.75
2023-05-08T12:07:15.826Z,114.67
2023-05-08T12:09:43.275Z,114.77
2023-05-08T12:12:10.441Z,114.40
2023-05-08T12:14:37.908Z,114.47
2023-05-08T12:17:05.357Z,114.90
2023-05-08T12:19:32.377Z,113.70
2023-05-08T12:22:00.236Z,114.23
2023-05-08T12:24:27.620Z,113.63
2023-05-08T12:26:58.599Z,114.60
2023-05-08T12:29:26.026Z,112.87
2023-05-08T12:31:53.736Z,112.30
2023-05-08T12:34:21.502Z,114.97
2023-05-08T12:36:48.550Z,112.90
2023-05-08T12:39:18.839Z,113.07
2023-05-08T12:41:50.394Z,114.87
2023-05-08T12:44:25.925Z,114.47
2023-05-08T12:46:57.267Z,114.63
2023-05-08T12:49:32.550Z,115.23
2023-05-08T12:52:13.366Z,115.57
2023-05-08T12:54:48.255Z,115.37
2023-05-08T12:57:18.795Z,115.37
2023-05-08T12:59:46.780Z,115.57
2023-05-08T13:02:23.740Z,114.88
2023-05-08T13:04:58.203Z,114.72
2023-05-08T13:07:32.090Z,115.40
2023-05-08T13:10:04.642Z,114.77
2023-05-08T13:12:32.436Z,115.33
2023-05-08T13:14:59.450Z,114.30
2023-05-08T13:17:27.575Z,113.67
2023-05-08T13:19:55.163Z,114.00
2023-05-08T13:22:26.351Z,114.70
2023-05-08T13:24:53.463Z,114.93
2023-05-08T13:27:20.503Z,115.40
2023-05-08T13:29:47.594Z,113.93
2023-05-08T13:32:15.005Z,112.50
2023-05-08T13:34:49.770Z,114.13
2023-05-08T13:37:19.061Z,113.70
2023-05-08T13:39:46.108Z,114.67
2023-05-08T13:42:15.122Z,114.38
2023-05-08T13:44:43.602Z,113.57
2023-05-08T13:47:11.071Z,114.67
2023-05-08T13:49:38.189Z,114.27
2023-05-08T13:52:05.560Z,114.47
2023-05-08T13:54:32.521Z,114.87
2023-05-08T13:56:59.593Z,115.10
2023-05-08T13:59:27.279Z,114.20
2023-05-08T14:01:54.513Z,113.80
2023-05-08T14:04:21.727Z,114.43
2023-05-08T14:06:50.330Z,114.27
2023-05-08T14:09:17.559Z,112.72
2023-05-08T14:11:44.987Z,113.13
2023-05-08T14:14:12.074Z,114.07
2023-05-08T14:16:39.139Z,111.90
2023-05-08T14:19:06.305Z,113.10
2023-05-08T14:21:34.658Z,113.90
2023-05-08T14:24:01.724Z,114.47
2023-05-08T14:26:29.131Z,114.00
2023-05-08T14:28:56.318Z,113.20
2023-05-08T14:31:23.398Z,112.87
2023-05-08T14:33:51.072Z,113.65
2023-05-08T14:36:18.021Z,114.13
2023-05-08T14:38:45.016Z,112.90
2023-05-08T14:41:12.157Z,114.07
2023-05-08T14:43:39.686Z,113.10
2023-05-08T14:46:06.729Z,113.63
2023-05-08T14:48:33.726Z,113.23
2023-05-08T14:51:00.746Z,114.30
2023-05-08T14:53:27.911Z,113.97
2023-05-08T14:55:55.357Z,114.40
2023-05-08T14:58:22.704Z,114.93
2023-05-08T15:00:50.083Z,115.13
2023-05-08T15:03:17.398Z,112.77
2023-05-08T15:05:44.606Z,113.17
2023-05-08T15:08:11.624Z,115.17
2023-05-08T15:10:38.590Z,114.27
2023-05-08T15:13:05.768Z,115.30
2023-05-08T15:15:32.860Z,113.17
2023-05-08T15:17:59.970Z,114.20
2023-05-08T15:20:27.008Z,115.50
2023-05-08T15:22:54.669Z,115.37
2023-05-08T15:25:21.690Z,115.23
2023-05-08T15:27:52.486Z,114.43
2023-05-08T15:30:20.690Z,115.50
2023-05-08T15:32:48.705Z,114.97
2023-05-08T15:35:16.025Z,115.77
2023-05-08T15:37:43.150Z,115.47
2023-05-08T15:40:11.082Z,116.17
2023-05-08T15:42:38.010Z,115.60
2023-05-08T15:45:05.922Z,116.00
2023-05-08T15:47:33.238Z,116.00
2023-05-08T15:50:00.460Z,116.30
2023-05-08T15:52:27.684Z,116.27
2023-05-08T15:54:54.646Z,116.67
2023-05-08T15:57:21.650Z,116.20
2023-05-08T15:59:48.623Z,116.30
2023-05-08T16:02:16.020Z,116.40
2023-05-08T16:04:43.187Z,116.60
2023-05-08T16:07:14.747Z,115.75
2023-05-08T16:09:42.201Z,116.60
2023-05-08T16:12:09.294Z,116.27
2023-05-08T16:14:36.415Z,116.10
2023-05-08T16:17:04.309Z,117.17
2023-05-08T16:19:31.275Z,116.20
2023-05-08T16:21:58.384Z,116.17
2023-05-08T16:24:25.410Z,116.87
2023-05-08T16:26:52.463Z,115.83
2023-05-08T16:29:19.921Z,117.33
2023-05-08T16:31:47.575Z,116.83
2023-05-08T16:34:15.179Z,116.87
2023-05-08T16:36:42.150Z,116.53
2023-05-08T16:39:09.155Z,117.00
2023-05-08T16:41:36.699Z,116.97
2023-05-08T16:44:03.843Z,116.57
2023-05-08T16:46:31.357Z,116.53
2023-05-08T16:48:58.383Z,117.20
2023-05-08T16:51:25.531Z,117.07
2023-05-08T16:53:53.058Z,117.50
2023-05-08T16:56:22.456Z,117.00
2023-05-08T16:58:49.515Z,117.10
2023-05-08T17:01:17.005Z,117.10
2023-05-08T17:03:44.072Z,117.10
2023-05-08T17:06:11.748Z,117.53
2023-05-08T17:08:39.154Z,117.87
2023-05-08T17:11:06.218Z,117.03
2023-05-08T17:13:33.782Z,117.20
2023-05-08T17:16:02.285Z,117.60
2023-05-08T17:18:29.389Z,117.80
2023-05-08T17:20:56.386Z,117.27
2023-05-08T17:23:23.521Z,117.87
2023-05-08T17:26:00.197Z,117.93
2023-05-08T17:28:27.386Z,117.90
2023-05-08T17:30:54.964Z,117.80
2023-05-08T17:33:22.444Z,118.10
2023-05-08T17:35:49.959Z,118.17
2023-05-08T17:38:17.031Z,117.90
2023-05-08T17:40:44.600Z,117.87
2023-05-08T17:43:12.044Z,117.80
2023-05-08T17:45:39.723Z,117.72
2023-05-08T17:48:07.014Z,117.63
2023-05-08T17:50:35.083Z,117.63
2023-05-08T17:53:02.091Z,117.50
2023-05-08T17:55:31.541Z,118.20
2023-05-08T17:57:58.762Z,117.57
2023-05-08T18:00:26.269Z,118.00
2023-05-08T18:02:53.484Z,118.10
2023-05-08T18:05:20.813Z,118.03
2023-05-08T18:07:47.863Z,118.30
2023-05-08T18:10:15.591Z,118.40
2023-05-08T18:12:42.683Z,118.00
2023-05-08T18:15:10.938Z,118.47
2023-05-08T18:17:38.031Z,118.43
2023-05-08T18:20:07.744Z,118.80
2023-05-08T18:22:35.606Z,118.23
2023-05-08T18:25:03.474Z,118.17
2023-05-08T18:27:33.275Z,118.60
2023-05-08T18:30:00.952Z,119.10
2023-05-08T18:32:28.934Z,118.97
2023-05-08T18:34:56.768Z,118.83
2023-05-08T18:37:24.227Z,119.03
2023-05-08T18:39:51.722Z,118.50
2023-05-08T18:42:18.881Z,118.60
2023-05-08T18:44:46.355Z,119.40
2023-05-08T18:47:13.463Z,118.77
2023-05-08T18:49:41.211Z,118.53
2023-05-08T18:52:08.633Z,118.30
2023-05-08T18:54:36.099Z,119.00
2023-05-08T18:57:03.844Z,119.00
2023-05-08T18:59:31.336Z,119.00
2023-05-08T19:01:59.083Z,119.47
2023-05-08T19:04:26.132Z,118.83
2023-05-08T19:06:53.700Z,117.57
2023-05-08T19:09:21.244Z,119.50
2023-05-08T19:11:48.272Z,118.70
2023-05-08T19:14:15.797Z,118.90
2023-05-08T19:16:43.204Z,119.37
2023-05-08T19:19:10.270Z,118.93
2023-05-08T19:21:37.748Z,118.67
2023-05-08T19:24:05.726Z,119.07
2023-05-08T19:26:32.738Z,119.30
2023-05-08T19:28:59.794Z,118.93
2023-05-08T19:31:27.263Z,119.00
2023-05-08T19:33:54.810Z,119.70
2023-05-08T19:36:22.426Z,118.77
2023-05-08T19:38:49.582Z,119.40
2023-05-08T19:41:17.720Z,119.40
2023-05-08T19:43:45.365Z,119.73
2023-05-08T19:46:12.461Z,119.10
2023-05-08T19:48:39.720Z,118.68
2023-05-08T19:51:11.406Z,118.87
2023-05-08T19:53:39.821Z,119.47
2023-05-08T19:56:06.785Z,119.10
2023-05-08T19:58:34.025Z,118.20
2023-05-08T20:01:03.353Z,118.70
2023-05-08T20:03:30.616Z,118.78
2023-05-08T20:05:57.783Z,117.60
2023-05-08T20:08:24.824Z,118.40
2023-05-08T20:10:52.428Z,118.87
2023-05-08T20:13:19.636Z,119.30
2023-05-08T20:15:47.201Z,119.47
2023-05-08T20:18:14.512Z,119.40
2023-05-08T20:20:42.196Z,119.15
2023-05-08T20:23:09.261Z,118.57
2023-05-08T20:25:36.370Z,119.13
2023-05-08T20:28:03.870Z,119.77
2023-05-08T20:30:31.106Z,118.77
2023-05-08T20:33:04.461Z,119.13
2023-05-08T20:35:32.852Z,118.77
2023-05-08T20:37:59.878Z,119.37
2023-05-08T20:40:27.029Z,119.77
2023-05-08T20:42:53.999Z,119.63
2023-05-08T20:45:21.254Z,118.90
2023-05-08T20:47:48.279Z,118.77
2023-05-08T20:50:16.445Z,118.23
2023-05-08T20:52:44.143Z,118.63
2023-05-08T20:55:11.516Z,119.00
2023-05-08T20:57:39.235Z,119.20
2023-05-08T21:00:08.172Z,119.13
2023-05-08T21:02:38.355Z,118.80
2023-05-08T21:05:07.264Z,119.17
2023-05-08T21:07:34.976Z,119.17
2023-05-08T21:10:03.676Z,119.10
2023-05-08T21:12:30.644Z,119.10
2023-05-08T21:14:57.728Z,118.80
2023-05-08T21:17:24.800Z,118.27
2023-05-08T21:19:51.835Z,118.53
2023-05-08T21:22:19.315Z,117.10
2023-05-08T21:24:46.886Z,118.77
2023-05-08T21:27:13.846Z,118.20
2023-05-08T21:29:40.973Z,118.17
2023-05-08T21:32:10.066Z,118.63
2023-05-08T21:34:37.627Z,118.07
2023-05-08T21:37:05.060Z,118.20
2023-05-08T21:39:32.598Z,119.00
2023-05-08T21:42:00.013Z,119.00
2023-05-08T21:44:27.572Z,118.97
2023-05-08T21:46:55.033Z,118.70
2023-05-08T21:49:22.005Z,118.90
2023-05-08T21:51:49.395Z,118.30
2023-05-08T21:54:17.114Z,118.47
2023-05-08T21:56:44.524Z,119.07
2023-05-08T21:59:12.044Z,118.07
2023-05-08T22:01:39.484Z,118.80
2023-05-08T22:04:07.030Z,119.00
2023-05-08T22:06:34.441Z,118.97
2023-05-08T22:09:01.985Z,118.47
2023-05-08T22:11:31.369Z,118.60
2023-05-08T22:13:58.803Z,118.30
2023-05-08T22:16:26.295Z,119.00
2023-05-08T22:18:53.745Z,118.77
2023-05-08T22:21:20.768Z,117.65
2023-05-08T22:23:48.305Z,118.60
2023-05-08T22:26:15.711Z,118.87
2023-05-08T22:28:43.254Z,118.77
2023-05-08T22:31:12.371Z,118.53
2023-05-08T22:33:39.411Z,118.77
2023-05-08T22:36:07.335Z,118.20
2023-05-08T22:38:34.917Z,118.07
2023-05-08T22:41:03.483Z,118.30
2023-05-08T22:43:31.895Z,118.40
2023-05-08T22:45:59.804Z,118.38
2023-05-08T22:48:28.721Z,119.07
2023-05-08T22:50:55.788Z,118.70
2023-05-08T22:53:23.343Z,118.50
2023-05-08T22:55:50.350Z,118.90
2023-05-08T22:58:17.769Z,118.87
2023-05-08T23:00:44.754Z,118.15
2023-05-08T23:03:12.944Z,118.30
2023-05-08T23:05:40.334Z,118.97
2023-05-08T23:08:07.797Z,118.57
2023-05-08T23:10:34.753Z,118.40
2023-05-08T23:13:02.379Z,118.20
2023-05-08T23:15:29.991Z,118.47
2023-05-08T23:17:57.054Z,118.57
2023-05-08T23:20:24.588Z,119.13
2023-05-08T23:22:51.968Z,118.80
2023-05-08T23:25:19.149Z,118.57
2023-05-08T23:27:46.742Z,118.57
2023-05-08T23:30:16.741Z,118.67
2023-05-08T23:32:44.683Z,118.68
2023-05-08T23:35:12.477Z,118.27
2023-05-08T23:37:40.021Z,118.27
2023-05-08T23:40:08.658Z,118.87
2023-05-08T23:42:37.077Z,118.47
2023-05-08T23:45:04.721Z,117.87
2023-05-08T23:47:32.064Z,118.87
2023-05-08T23:49:59.602Z,118.47
2023-05-08T23:52:27.212Z,118.83
2023-05-08T23:54:54.157Z,118.70
2023-05-08T23:57:21.198Z,118.07
2023-05-08T23:59:48.167Z,117.87
